Accueil
METAR-TAF:

METAR-TAF

Aéroports :

Plaisance, Italie

latitude: 44-55N, longitude: 009-44E, altitude: 134 m

Observation

Le bulletin a été fait il y a 9 heures et 51 minutes, à 17:55 UTC
Vent 2 kt de ouest
Température -1°C
Humidité 93%
Pression 1006 hPa
Visibilité: 1800 m
Quelques nuages à une hauteur de 300 ft
Nuages épars à une hauteur de 700 ft
Nuages fragmentés à une hauteur de 1500 ft
neige faible, brume

METAR: LIMS 101755Z 28002KT 1800 -SN BR FEW003 SCT007 BKN015 M01/M02 Q1006 RMK OVC VIS MIN 1800 WIND THR30 26002KT YLO

Heure: 04:46 (03:46 UTC)


TAF: absent

Observations et prévisions météorologiques de plus de 4000 aéroports (messages METAR et TAF).

Les stations disponibles sont représentées par des disques jaunes et rouges sur la carte.

Passer la souris dessus pour voir le nom de la station.

Cliquer dessus pour voir les observations et prévisions météorologiques.

Pour changer de carte: cliquez sur les boutons verts avec une croix noire pour zoomer, sur le bouton vert avec un tiret pour effectuer un zoom arrière, ou sur les flèches vertes pour les cartes adjacentes.


METAR-TAF: